createdAt,value
2018-06-14T00:00:44.337Z,90.90
2018-06-14T00:03:13.117Z,90.90
2018-06-14T00:05:41.823Z,90.80
2018-06-14T00:08:10.630Z,90.90
2018-06-14T00:10:39.453Z,90.90
2018-06-14T00:15:36.533Z,90.60
2018-06-14T00:18:05.621Z,90.70
2018-06-14T00:20:34.682Z,90.50
2018-06-14T00:23:04.069Z,90.50
2018-06-14T00:25:32.753Z,90.30
2018-06-14T00:28:01.418Z,90.30
2018-06-14T00:30:30.861Z,90.30
2018-06-14T00:32:59.579Z,90.80
2018-06-14T00:35:28.305Z,90.70
2018-06-14T00:37:57.032Z,90.70
2018-06-14T00:40:25.768Z,90.40
2018-06-14T00:42:54.462Z,90.70
2018-06-14T00:45:23.159Z,90.30
2018-06-14T00:47:51.814Z,90.30
2018-06-14T00:50:20.818Z,90.80
2018-06-14T00:52:49.488Z,91.30
2018-06-14T00:55:18.169Z,91.50
2018-06-14T00:57:46.901Z,91.60
2018-06-14T01:00:15.618Z,91.80
2018-06-14T01:02:44.330Z,91.90
2018-06-14T01:05:12.959Z,91.70
2018-06-14T01:07:41.629Z,91.60
2018-06-14T01:10:10.282Z,92.00
2018-06-14T01:12:39.105Z,92.00
2018-06-14T01:15:07.828Z,92.00
2018-06-14T01:17:36.462Z,91.90
2018-06-14T01:20:05.440Z,91.80
2018-06-14T01:22:34.173Z,91.70
2018-06-14T01:25:02.824Z,91.80
2018-06-14T01:27:31.494Z,91.80
2018-06-14T01:30:00.178Z,92.10
2018-06-14T01:32:28.845Z,92.20
2018-06-14T01:34:57.477Z,92.00
2018-06-14T01:38:37.483Z,92.00
2018-06-14T01:41:06.186Z,92.00
2018-06-14T01:43:34.928Z,92.70
2018-06-14T01:46:03.565Z,92.70
2018-06-14T01:48:32.289Z,92.50
2018-06-14T01:51:00.941Z,92.70
2018-06-14T01:53:29.777Z,92.80
2018-06-14T01:55:58.997Z,92.70
2018-06-14T01:58:30.689Z,92.80
2018-06-14T02:01:00.788Z,92.80
2018-06-14T02:03:29.649Z,92.60
2018-06-14T02:05:58.273Z,92.60
2018-06-14T02:08:27.000Z,92.60
2018-06-14T02:10:55.641Z,92.80
2018-06-14T02:13:24.694Z,92.80
2018-06-14T02:15:53.360Z,92.90
2018-06-14T02:18:22.203Z,93.10
2018-06-14T02:20:51.359Z,92.90
2018-06-14T02:23:20.007Z,93.00
2018-06-14T02:25:48.609Z,92.90
2018-06-14T02:28:17.273Z,93.00
2018-06-14T02:30:45.877Z,92.70
2018-06-14T02:33:14.563Z,92.80
2018-06-14T02:35:43.491Z,92.80
2018-06-14T02:38:12.166Z,92.80
2018-06-14T02:40:40.952Z,92.80
2018-06-14T02:43:09.637Z,92.90
2018-06-14T02:45:38.237Z,93.00
2018-06-14T02:48:06.826Z,93.10
2018-06-14T02:50:35.493Z,93.10
2018-06-14T02:53:04.219Z,93.20
2018-06-14T02:55:32.841Z,93.30
2018-06-14T02:58:01.501Z,93.40
2018-06-14T03:00:30.241Z,93.40
2018-06-14T03:02:58.898Z,93.60
2018-06-14T03:05:27.727Z,93.80
2018-06-14T03:07:56.364Z,93.90
2018-06-14T03:10:24.928Z,93.90
2018-06-14T03:12:54.059Z,93.80
2018-06-14T03:15:25.528Z,93.80
2018-06-14T03:17:54.629Z,94.00
2018-06-14T03:20:27.900Z,94.00
2018-06-14T03:22:57.835Z,94.00
2018-06-14T03:25:26.465Z,93.80
2018-06-14T03:27:55.095Z,93.70
2018-06-14T03:30:23.810Z,93.60
2018-06-14T03:32:52.753Z,93.70
2018-06-14T03:35:21.820Z,93.70
2018-06-14T03:37:51.057Z,93.90
2018-06-14T03:40:19.780Z,94.00
2018-06-14T03:45:17.782Z,93.80
2018-06-14T03:47:47.792Z,93.80
2018-06-14T03:50:16.463Z,93.70
2018-06-14T03:52:45.053Z,93.40
2018-06-14T03:55:13.944Z,93.20
2018-06-14T03:57:42.578Z,93.00
2018-06-14T04:00:11.261Z,93.30
2018-06-14T04:02:40.801Z,93.50
2018-06-14T04:05:09.507Z,93.50
2018-06-14T04:07:38.143Z,93.50
2018-06-14T04:10:07.165Z,93.50
2018-06-14T04:12:35.749Z,93.70
2018-06-14T04:15:04.388Z,93.60
2018-06-14T04:17:33.395Z,93.60
2018-06-14T04:20:01.973Z,93.50
2018-06-14T04:22:30.620Z,93.40
2018-06-14T04:24:59.239Z,93.30
2018-06-14T04:27:27.962Z,93.10
2018-06-14T04:29:56.484Z,93.10
2018-06-14T04:32:25.111Z,93.00
2018-06-14T04:34:53.875Z,92.70
2018-06-14T04:37:22.646Z,92.30
2018-06-14T04:39:51.380Z,92.20
2018-06-14T04:44:48.272Z,92.20
2018-06-14T04:47:16.933Z,92.10
2018-06-14T04:49:46.181Z,91.80
2018-06-14T04:52:15.041Z,91.70
2018-06-14T04:54:47.924Z,92.00
2018-06-14T04:57:16.940Z,91.60
2018-06-14T04:59:45.631Z,91.40
2018-06-14T05:02:14.357Z,91.20
2018-06-14T05:04:42.946Z,90.60
2018-06-14T05:07:11.538Z,90.40
2018-06-14T05:09:40.326Z,90.40
2018-06-14T05:12:09.142Z,90.20
2018-06-14T05:14:37.751Z,89.90
2018-06-14T05:17:06.468Z,89.60
2018-06-14T05:19:35.089Z,89.40
2018-06-14T05:22:03.731Z,89.20
2018-06-14T05:27:01.016Z,88.80
2018-06-14T05:29:29.728Z,88.40
2018-06-14T05:31:58.332Z,88.40
2018-06-14T05:34:26.990Z,87.90
2018-06-14T05:36:55.631Z,87.40
2018-06-14T05:39:24.269Z,86.50
2018-06-14T05:41:52.927Z,86.40
2018-06-14T05:44:21.538Z,86.50
2018-06-14T05:46:50.180Z,86.80
2018-06-14T05:49:18.783Z,87.10
2018-06-14T05:51:47.389Z,85.70
2018-06-14T05:54:16.050Z,85.70
2018-06-14T05:56:44.646Z,85.50
2018-06-14T05:59:13.307Z,85.40
2018-06-14T06:01:41.945Z,85.00
2018-06-14T06:04:10.648Z,85.80
2018-06-14T06:06:39.376Z,85.60
2018-06-14T06:09:10.171Z,85.10
2018-06-14T06:11:39.137Z,84.50
2018-06-14T06:14:07.826Z,84.50
2018-06-14T06:16:36.455Z,83.80
2018-06-14T06:19:05.361Z,83.20
2018-06-14T06:21:33.984Z,81.20
2018-06-14T06:24:02.607Z,80.70
2018-06-14T06:26:31.161Z,80.20
2018-06-14T06:28:59.768Z,80.20
2018-06-14T06:31:28.394Z,80.90
2018-06-14T06:33:57.119Z,81.60
2018-06-14T06:36:25.773Z,80.70
2018-06-14T06:38:54.419Z,80.80
2018-06-14T06:41:23.074Z,78.70
2018-06-14T06:43:51.764Z,78.80
2018-06-14T06:46:20.673Z,78.30
2018-06-14T06:48:49.344Z,77.70
2018-06-14T06:51:24.571Z,77.90
2018-06-14T06:53:53.188Z,78.00
2018-06-14T06:56:21.905Z,78.10
2018-06-14T06:58:50.961Z,77.20
2018-06-14T07:01:19.636Z,76.80
2018-06-14T07:03:48.270Z,77.60
2018-06-14T07:06:16.897Z,76.20
2018-06-14T07:08:45.917Z,75.90
2018-06-14T07:11:14.520Z,76.50
2018-06-14T07:13:43.397Z,76.60
2018-06-14T07:16:12.412Z,75.50
2018-06-14T07:18:41.814Z,75.90
2018-06-14T07:21:10.853Z,76.80
2018-06-14T07:23:40.045Z,74.10
2018-06-14T07:26:08.852Z,72.90
2018-06-14T07:28:37.601Z,71.00
2018-06-14T07:31:12.016Z,71.60
2018-06-14T07:33:40.604Z,72.60
2018-06-14T07:36:09.332Z,72.40
2018-06-14T07:38:38.422Z,71.40
2018-06-14T07:41:07.006Z,71.10
2018-06-14T07:43:35.652Z,69.80
2018-06-14T07:46:05.089Z,64.20
2018-06-14T07:48:33.742Z,65.30
2018-06-14T07:51:02.432Z,67.20
2018-06-14T07:53:31.029Z,66.00
2018-06-14T07:56:00.047Z,61.60
2018-06-14T07:58:33.281Z,61.10
2018-06-14T08:01:02.423Z,61.60
2018-06-14T08:03:31.076Z,63.20
2018-06-14T08:05:59.693Z,63.40
2018-06-14T08:08:28.757Z,63.70
2018-06-14T08:10:57.298Z,62.90
2018-06-14T08:13:25.949Z,62.60
2018-06-14T08:15:54.904Z,62.80
2018-06-14T08:18:23.531Z,62.70
2018-06-14T08:20:52.078Z,62.60
2018-06-14T08:23:20.670Z,63.20
2018-06-14T08:25:49.334Z,65.60
2018-06-14T08:28:17.962Z,62.00
2018-06-14T08:30:46.880Z,61.60
2018-06-14T08:33:15.501Z,62.80
2018-06-14T08:35:44.224Z,62.70
2018-06-14T08:38:12.806Z,62.50
2018-06-14T08:40:41.454Z,61.40
2018-06-14T08:43:10.167Z,62.40
2018-06-14T08:45:38.748Z,63.40
2018-06-14T08:48:07.346Z,60.10
2018-06-14T08:50:35.899Z,60.30
2018-06-14T08:53:04.749Z,61.10
2018-06-14T08:55:33.612Z,61.00
2018-06-14T08:58:02.274Z,61.10
2018-06-14T09:00:30.981Z,60.70
2018-06-14T09:02:59.638Z,62.00
2018-06-14T09:05:28.269Z,62.50
2018-06-14T09:07:58.353Z,61.60
2018-06-14T09:10:27.221Z,59.20
2018-06-14T09:12:56.004Z,60.50
2018-06-14T09:15:24.718Z,60.30
2018-06-14T09:17:53.634Z,58.90
2018-06-14T09:22:50.789Z,60.10
2018-06-14T09:25:19.424Z,61.50
2018-06-14T09:27:48.090Z,62.10
2018-06-14T09:30:16.692Z,61.40
2018-06-14T09:32:45.365Z,59.90
2018-06-14T09:35:13.953Z,60.30
2018-06-14T09:37:42.608Z,60.70
2018-06-14T09:40:11.502Z,59.90
2018-06-14T09:42:41.136Z,59.10
2018-06-14T09:45:09.814Z,60.80
2018-06-14T09:47:38.780Z,60.50
2018-06-14T09:50:07.518Z,59.70
2018-06-14T09:52:36.134Z,61.70
2018-06-14T09:55:04.882Z,60.50
2018-06-14T09:57:33.452Z,60.60
2018-06-14T10:00:02.081Z,58.70
2018-06-14T10:02:30.876Z,59.60
2018-06-14T10:04:59.539Z,61.10
2018-06-14T10:07:30.968Z,60.70
2018-06-14T10:09:59.692Z,58.80
2018-06-14T10:12:30.245Z,59.20
2018-06-14T10:14:58.861Z,59.30
2018-06-14T10:17:27.639Z,55.10
2018-06-14T10:19:56.378Z,57.30
2018-06-14T10:22:25.008Z,59.70
2018-06-14T10:24:53.647Z,58.60
2018-06-14T10:29:59.582Z,57.80
2018-06-14T10:32:28.245Z,58.70
2018-06-14T10:34:57.721Z,57.70
2018-06-14T10:37:26.290Z,55.80
2018-06-14T10:39:55.485Z,56.00
2018-06-14T10:42:24.127Z,57.90
2018-06-14T10:44:52.700Z,58.40
2018-06-14T10:47:21.453Z,59.10
2018-06-14T10:49:50.279Z,59.00
2018-06-14T10:52:18.848Z,57.40
2018-06-14T10:54:47.654Z,59.00
2018-06-14T10:57:16.344Z,58.90
2018-06-14T10:59:44.897Z,57.90
2018-06-14T11:02:13.776Z,62.60
2018-06-14T11:04:43.056Z,60.30
2018-06-14T11:07:11.690Z,59.00
2018-06-14T11:09:40.231Z,62.00
2018-06-14T11:12:08.928Z,57.30
2018-06-14T11:14:37.604Z,54.10
2018-06-14T11:17:12.108Z,55.10
2018-06-14T11:19:40.853Z,55.20
2018-06-14T11:22:09.475Z,58.60
2018-06-14T11:24:38.428Z,58.00
2018-06-14T11:27:07.121Z,57.50
2018-06-14T11:29:40.791Z,57.00
2018-06-14T11:32:09.406Z,56.10
2018-06-14T11:34:38.070Z,55.60
2018-06-14T11:37:06.788Z,58.60
2018-06-14T11:39:35.487Z,57.20
2018-06-14T11:42:04.134Z,56.50
2018-06-14T11:44:32.812Z,52.60
2018-06-14T11:47:01.518Z,55.70
2018-06-14T11:49:30.158Z,57.00
2018-06-14T11:51:58.798Z,55.00
2018-06-14T11:54:27.632Z,56.60
2018-06-14T11:56:56.441Z,55.10
2018-06-14T11:59:36.232Z,56.10
2018-06-14T12:02:05.018Z,56.10
2018-06-14T12:04:33.637Z,55.50
2018-06-14T12:07:02.269Z,53.30
2018-06-14T12:09:30.851Z,54.30
2018-06-14T12:14:32.768Z,54.20
2018-06-14T12:17:01.425Z,54.40
2018-06-14T12:19:30.061Z,52.60
2018-06-14T12:21:58.735Z,54.00
2018-06-14T12:24:27.384Z,53.30
2018-06-14T12:26:56.041Z,53.20
2018-06-14T12:29:24.698Z,53.60
2018-06-14T12:31:53.266Z,55.10
2018-06-14T12:34:22.674Z,53.70
2018-06-14T12:36:51.359Z,55.20
2018-06-14T12:39:20.608Z,52.70
2018-06-14T12:41:49.218Z,54.20
2018-06-14T12:44:17.972Z,54.00
2018-06-14T12:46:46.546Z,54.40
2018-06-14T12:49:15.170Z,54.80
2018-06-14T12:51:43.854Z,57.50
2018-06-14T12:54:12.509Z,59.80
2018-06-14T12:56:41.101Z,57.20
2018-06-14T12:59:09.716Z,54.50
2018-06-14T13:01:43.553Z,53.40
2018-06-14T13:04:12.297Z,54.60
2018-06-14T13:06:40.897Z,55.70
2018-06-14T13:09:11.913Z,55.50
2018-06-14T13:11:40.808Z,54.40
2018-06-14T13:14:10.377Z,55.80
2018-06-14T13:16:39.000Z,54.20
2018-06-14T13:19:07.597Z,53.10
2018-06-14T13:21:37.567Z,54.00
2018-06-14T13:24:06.267Z,48.90
2018-06-14T13:26:34.905Z,49.70
2018-06-14T13:29:04.500Z,52.50
2018-06-14T13:31:33.126Z,53.70
2018-06-14T13:34:02.026Z,52.40
2018-06-14T13:36:30.868Z,51.50
2018-06-14T13:38:59.616Z,50.40
2018-06-14T13:41:28.568Z,50.30
2018-06-14T13:43:57.296Z,50.20
2018-06-14T13:46:26.041Z,49.20
2018-06-14T13:48:54.762Z,48.00
2018-06-14T13:51:23.441Z,48.80
2018-06-14T13:53:52.551Z,50.40
2018-06-14T13:56:21.956Z,45.90
2018-06-14T13:58:50.616Z,47.60
2018-06-14T14:01:19.308Z,48.00
2018-06-14T14:03:48.015Z,45.30
2018-06-14T14:06:30.165Z,46.20
2018-06-14T14:08:58.937Z,46.60
2018-06-14T14:11:27.679Z,47.40
2018-06-14T14:14:00.690Z,45.60
2018-06-14T14:16:29.400Z,47.80
2018-06-14T14:21:26.515Z,44.10
2018-06-14T14:23:56.526Z,43.70
2018-06-14T14:26:26.279Z,47.80
2018-06-14T14:28:56.821Z,47.40
2018-06-14T14:31:26.221Z,46.70
2018-06-14T14:36:43.755Z,45.70
2018-06-14T14:39:13.227Z,46.40
2018-06-14T14:41:42.168Z,46.10
2018-06-14T14:44:22.852Z,45.00
2018-06-14T14:46:51.513Z,45.50
2018-06-14T14:49:20.064Z,44.20
2018-06-14T14:51:49.865Z,44.00
2018-06-14T14:54:19.168Z,41.10
2018-06-14T14:56:47.802Z,40.60
2018-06-14T14:59:16.492Z,43.00
2018-06-14T15:01:45.230Z,44.60
2018-06-14T15:04:13.870Z,42.30
2018-06-14T15:06:42.658Z,41.30
2018-06-14T15:09:11.281Z,42.20
2018-06-14T15:11:39.907Z,41.00
2018-06-14T15:14:08.637Z,41.40
2018-06-14T15:16:37.217Z,41.90
2018-06-14T15:19:06.373Z,41.40
2018-06-14T15:21:35.071Z,42.00
2018-06-14T15:24:04.538Z,42.40
2018-06-14T15:26:34.311Z,42.30
2018-06-14T15:29:05.126Z,44.60
2018-06-14T15:31:33.778Z,43.10
2018-06-14T15:34:02.345Z,41.80
2018-06-14T15:38:59.317Z,44.60
2018-06-14T15:41:28.330Z,45.60
2018-06-14T15:43:56.973Z,47.70
2018-06-14T15:46:25.621Z,47.80
2018-06-14T15:48:54.331Z,49.00
2018-06-14T15:51:22.926Z,52.00
2018-06-14T15:53:51.788Z,51.40
2018-06-14T15:56:33.358Z,52.70
2018-06-14T15:59:03.279Z,53.00
2018-06-14T16:01:42.171Z,52.00
2018-06-14T16:04:11.284Z,50.40
2018-06-14T16:06:39.961Z,50.40
2018-06-14T16:09:11.037Z,46.40
2018-06-14T16:11:39.983Z,47.20
2018-06-14T16:14:08.896Z,48.90
2018-06-14T16:16:37.804Z,48.10
2018-06-14T16:19:24.243Z,48.60
2018-06-14T16:21:52.809Z,48.30
2018-06-14T16:24:21.444Z,48.20
2018-06-14T16:26:50.312Z,47.70
2018-06-14T16:29:19.396Z,46.80
2018-06-14T16:31:49.786Z,45.30
2018-06-14T16:34:18.554Z,47.10
2018-06-14T16:36:47.409Z,48.60
2018-06-14T16:39:15.958Z,46.50
2018-06-14T16:41:44.792Z,46.90
2018-06-14T16:44:13.373Z,47.40
2018-06-14T16:46:42.281Z,46.00
2018-06-14T16:49:13.250Z,44.40
2018-06-14T16:51:42.397Z,46.40
2018-06-14T16:54:10.930Z,44.70
2018-06-14T16:59:07.837Z,44.10
2018-06-14T17:01:36.417Z,44.60
2018-06-14T17:04:05.514Z,44.60
2018-06-14T17:06:34.122Z,47.30
2018-06-14T17:09:02.982Z,50.70
2018-06-14T17:11:31.544Z,53.20
2018-06-14T17:14:00.177Z,55.00
2018-06-14T17:16:28.728Z,55.50
2018-06-14T17:18:57.620Z,56.00
2018-06-14T17:21:27.119Z,57.00
2018-06-14T17:23:55.786Z,57.20
2018-06-14T17:26:24.371Z,56.40
2018-06-14T17:28:53.148Z,54.90
2018-06-14T17:31:21.740Z,53.60
2018-06-14T17:33:50.828Z,53.40
2018-06-14T17:36:22.467Z,53.20
2018-06-14T17:38:51.729Z,55.00
2018-06-14T17:41:20.384Z,56.40
2018-06-14T17:43:48.981Z,57.60
2018-06-14T17:46:17.692Z,59.40
2018-06-14T17:48:46.938Z,60.80
2018-06-14T17:51:16.128Z,61.50
2018-06-14T17:53:44.748Z,61.70
2018-06-14T17:56:13.353Z,62.40
2018-06-14T17:58:41.963Z,63.60
2018-06-14T18:01:26.553Z,65.30
2018-06-14T18:03:55.328Z,64.40
2018-06-14T18:06:24.110Z,65.50
2018-06-14T18:08:52.863Z,65.30
2018-06-14T18:11:21.495Z,66.30
2018-06-14T18:13:50.402Z,65.90
2018-06-14T18:16:19.338Z,67.10
2018-06-14T18:18:47.945Z,68.20
2018-06-14T18:21:33.252Z,68.30
2018-06-14T18:24:01.913Z,67.80
2018-06-14T18:26:30.541Z,68.90
2018-06-14T18:29:00.558Z,69.30
2018-06-14T18:31:29.212Z,69.10
2018-06-14T18:33:57.798Z,68.50
2018-06-14T18:36:26.548Z,69.70
2018-06-14T18:38:55.134Z,69.50
2018-06-14T18:41:23.736Z,70.10
2018-06-14T18:43:52.380Z,70.70
2018-06-14T18:48:49.255Z,71.40
2018-06-14T18:51:18.387Z,71.10
2018-06-14T18:53:47.932Z,71.90
2018-06-14T18:56:16.593Z,72.10
2018-06-14T18:58:45.239Z,71.90
2018-06-14T19:01:13.878Z,72.10
2018-06-14T19:03:44.568Z,72.20
2018-06-14T19:06:14.372Z,72.50
2018-06-14T19:08:43.250Z,72.80
2018-06-14T19:11:11.900Z,72.70
2018-06-14T19:13:42.534Z,73.20
2018-06-14T19:16:11.251Z,73.50
2018-06-14T19:18:39.868Z,73.90
2018-06-14T19:21:08.519Z,73.80
2018-06-14T19:23:37.160Z,73.60
2018-06-14T19:26:05.825Z,75.10
2018-06-14T19:28:34.489Z,75.30
2018-06-14T19:31:03.245Z,76.70
2018-06-14T19:33:32.498Z,77.10
2018-06-14T19:36:01.646Z,77.70
2018-06-14T19:38:30.464Z,77.90
2018-06-14T19:40:59.156Z,78.20
2018-06-14T19:43:27.864Z,79.10
2018-06-14T19:45:56.545Z,79.30
2018-06-14T19:48:25.176Z,79.20
2018-06-14T19:50:54.647Z,79.50
2018-06-14T19:53:23.273Z,79.60
2018-06-14T19:55:52.105Z,79.80
2018-06-14T19:58:20.797Z,79.90
2018-06-14T20:00:49.406Z,80.00
2018-06-14T20:03:18.093Z,80.70
2018-06-14T20:05:46.805Z,81.10
2018-06-14T20:08:17.065Z,81.30
2018-06-14T20:10:46.943Z,81.40
2018-06-14T20:13:15.992Z,81.70
2018-06-14T20:15:44.954Z,82.00
2018-06-14T20:18:17.427Z,82.00
2018-06-14T20:20:48.421Z,82.50
2018-06-14T20:23:16.999Z,82.70
2018-06-14T20:25:45.711Z,82.40
2018-06-14T20:28:14.335Z,82.80
2018-06-14T20:30:42.964Z,82.90
2018-06-14T20:33:11.798Z,83.20
2018-06-14T20:35:40.434Z,83.80
2018-06-14T20:38:12.302Z,84.00
2018-06-14T20:40:40.909Z,84.20
2018-06-14T20:43:09.530Z,84.30
2018-06-14T20:45:38.156Z,84.50
2018-06-14T20:48:06.901Z,84.40
2018-06-14T20:50:35.610Z,84.40
2018-06-14T20:53:04.287Z,84.40
2018-06-14T20:55:34.543Z,84.40
2018-06-14T20:58:03.223Z,84.50
2018-06-14T21:00:31.862Z,84.40
2018-06-14T21:03:00.450Z,84.50
2018-06-14T21:05:29.142Z,84.50
2018-06-14T21:07:57.761Z,84.60
2018-06-14T21:10:26.433Z,85.00
2018-06-14T21:12:55.052Z,85.20
2018-06-14T21:15:23.747Z,85.40
2018-06-14T21:17:52.400Z,85.60
2018-06-14T21:20:21.084Z,85.70
2018-06-14T21:22:49.671Z,85.90
2018-06-14T21:25:18.276Z,85.80
2018-06-14T21:27:46.857Z,85.90
2018-06-14T21:30:15.444Z,85.90
2018-06-14T21:32:44.005Z,85.90
2018-06-14T21:35:12.606Z,85.90
2018-06-14T21:37:41.220Z,86.20
2018-06-14T21:40:10.919Z,86.00
2018-06-14T21:42:41.097Z,86.70
2018-06-14T21:45:09.799Z,86.70
2018-06-14T21:47:38.372Z,86.80
2018-06-14T21:50:06.943Z,86.60
2018-06-14T21:52:35.509Z,86.80
2018-06-14T21:55:04.162Z,86.90
2018-06-14T21:57:32.765Z,87.40
2018-06-14T22:00:01.439Z,87.30
2018-06-14T22:02:30.008Z,87.20
2018-06-14T22:04:58.610Z,87.30
2018-06-14T22:07:27.229Z,87.30
2018-06-14T22:09:55.850Z,87.20
2018-06-14T22:12:24.519Z,87.20
2018-06-14T22:14:58.351Z,87.30
2018-06-14T22:17:26.913Z,87.20
2018-06-14T22:19:55.582Z,87.70
2018-06-14T22:22:24.223Z,87.40
2018-06-14T22:24:53.268Z,87.80
2018-06-14T22:27:21.893Z,87.70
2018-06-14T22:29:50.529Z,87.60
2018-06-14T22:32:19.188Z,87.80
2018-06-14T22:34:59.052Z,87.70
2018-06-14T22:37:27.673Z,87.60
2018-06-14T22:39:56.282Z,87.40
2018-06-14T22:42:24.912Z,87.90
2018-06-14T22:44:53.512Z,88.00
2018-06-14T22:47:22.096Z,87.80
2018-06-14T22:49:50.650Z,87.70
2018-06-14T22:53:21.992Z,87.70
2018-06-14T22:55:50.606Z,87.60
2018-06-14T22:58:19.189Z,87.70
2018-06-14T23:01:53.751Z,87.40
2018-06-14T23:04:23.672Z,87.40
2018-06-14T23:06:52.311Z,87.60
2018-06-14T23:10:32.806Z,87.30
2018-06-14T23:13:01.891Z,87.30
2018-06-14T23:15:30.608Z,87.30
2018-06-14T23:17:59.813Z,87.30
2018-06-14T23:20:30.017Z,87.70
2018-06-14T23:22:59.357Z,87.70
2018-06-14T23:25:28.791Z,87.80
2018-06-14T23:27:57.449Z,87.80
2018-06-14T23:30:26.070Z,87.80
2018-06-14T23:32:54.702Z,87.80
2018-06-14T23:35:23.281Z,87.80
2018-06-14T23:37:51.984Z,88.00
2018-06-14T23:40:20.596Z,88.00
2018-06-14T23:42:49.257Z,87.90
2018-06-14T23:45:17.824Z,88.00
2018-06-14T23:47:46.508Z,87.90
2018-06-14T23:50:15.098Z,87.80
2018-06-14T23:52:43.892Z,87.70
2018-06-14T23:55:12.565Z,87.70
2018-06-14T23:57:41.205Z,87.60
